Flight Track Log - Related Links

Times and Time Zones

All times are in EDT time to prevent confusion due to time zone crossing. See the UAL3740 flight status page for this flight to view local times or setup timezone preferences in your user account.

Time Position Orientation Groundspeed Altitude Reporting Facility
EDT Latitude Longitude Course Direction KTS MPH feet Rate Location/Type
Mon 10:24:34 AM 41.7622 -71.4242 North 188 216 2,400  Level Boston Center
Mon 10:26:02 AM 41.8256 -71.5014 318° Northwest 242 278 7,700 3,405 Climbing Boston Center
Mon 10:27:02 AM 41.8553 -71.5733 299° West 242 278 10,800 2,350 Climbing Boston Center
Mon 10:28:02 AM 41.8456 -71.6847 263° West 276 318 12,400 2,281 Climbing Boston Center
Mon 10:29:03 AM 41.8194 -71.8244 256° West 335 386 15,400 2,471 Climbing Boston Center
Mon 10:30:01 AM 41.7992 -71.9417 257° West 365 420 17,300 1,627 Climbing Boston Center
Mon 10:31:01 AM 41.8517 -72.0722 298° West 346 398 18,600 1,339 Climbing Boston Center
Mon 10:32:02 AM 41.9019 -72.1750 303° West 346 398 20,000 1,289 Climbing Boston Center
Mon 10:33:02 AM 41.9606 -72.2950 303° West 360 414 21,200 1,160 Climbing Boston Center
Mon 10:34:01 AM 41.9981 -72.4317 290° West 381 438 22,300 1,059 Climbing Boston Center
Mon 10:35:01 AM 41.9856 -72.5853 264° West 391 450 23,300 942 Climbing Boston Center
Mon 10:36:02 AM 41.9789 -72.7361 267° West 397 457 24,200 1,082 Climbing Boston Center
Mon 10:37:03 AM 41.9703 -72.8953 266° West 416 479 25,500 1,462 Climbing Boston Center
Mon 10:38:01 AM 41.9547 -73.0542 263° West 424 488 27,100 1,576 Climbing Boston Center
Mon 10:39:01 AM 41.8936 -73.1819 237° Southwest 410 472 28,600 1,438 Climbing Boston Center
Mon 10:40:02 AM 41.8219 -73.3008 231° Southwest 410 472 30,000 442 Climbing Boston Center
Mon 10:42:11 AM 41.6531 -73.5753 231° Southwest 443 510 30,000  Level New York Center
Mon 10:43:10 AM 41.5836 -73.6944 232° Southwest 455 524 30,000  Level New York Center
Mon 10:44:13 AM 41.4992 -73.8208 228° Southwest 455 524 30,000  Level New York Center
Mon 10:45:11 AM 41.4106 -73.9383 225° Southwest 460 529 30,000  Level New York Center
Mon 10:46:11 AM 41.3200 -74.0583 225° Southwest 460 529 30,000  Level New York Center
Mon 10:47:11 AM 41.2269 -74.1808 225° Southwest 460 529 30,000  Level New York Center
Mon 10:48:11 AM 41.1208 -74.3131 223° Southwest 478 550 30,000 -295 Level New York Center
Mon 10:49:13 AM 41.0406 -74.4189 225° Southwest 473 544 29,400 -1,008 Descending New York Center
Mon 10:50:10 AM 40.9450 -74.5428 224° Southwest 456 525 28,000 -718 Descending New York Center
Mon 10:51:10 AM 40.8850 -74.6603 236° Southwest 439 505 28,000 -298 Level New York Center
Mon 10:52:11 AM 40.8336 -74.8247 248° West 433 498 27,400 -1,240 Descending New York Center
Mon 10:53:11 AM 40.7961 -74.9458 248° West 425 489 25,500 -1,686 Descending New York Center
Mon 10:54:12 AM 40.7514 -75.0883 248° West 395 455 24,000 -942 Descending New York Center
Mon 10:55:12 AM 40.7111 -75.2197 248° West 389 448 23,600 -661 Descending New York Center
Mon 10:56:10 AM 40.6525 -75.3336 236° Southwest 407 468 22,700 -958 Descending New York Center
Mon 10:57:11 AM 40.5853 -75.4575 234° Southwest 418 481 21,700 -992 Descending New York Center
Mon 10:58:11 AM 40.5203 -75.5733 234° Southwest 412 474 20,700 -836 Descending New York Center
Mon 10:59:13 AM 40.4503 -75.6994 234° Southwest 399 459 20,000 -353 Descending New York Center
Mon 11:00:10 AM 40.3872 -75.8119 234° Southwest 394 453 20,000  Level New York Center
Mon 11:01:11 AM 40.3283 -75.9194 234° Southwest 394 453 20,000  Level New York Center
Mon 11:02:11 AM 40.2628 -76.0342 233° Southwest 394 453 20,000 -149 Level New York Center
Mon 11:03:12 AM 40.1992 -76.1517 235° Southwest 394 453 19,700 -958 Descending New York Center
Mon 11:04:10 AM 40.1289 -76.2739 233° Southwest 394 453 18,100 -1,453 Descending New York Center
Mon 11:06:22 AM 40.0167 -76.5333 241° Southwest 382 440 15,100 -969 Descending Potomac TRACON
Mon 11:07:22 AM 39.9500 -76.6500 233° Southwest 368 423 15,000  Descending Potomac TRACON
Mon 11:08:22 AM 39.9000 -76.7667 241° Southwest 388 447 15,100 -626 Climbing Potomac TRACON
Mon 11:09:17 AM 39.8500 -76.8667 237° Southwest 358 412 13,800 -1,774 Descending Potomac TRACON
Mon 11:10:17 AM 39.8000 -76.9667 237° Southwest 334 384 11,700 -1,800 Descending Potomac TRACON
Mon 11:11:17 AM 39.7667 -77.0500 243° Southwest 300 345 10,200 -1,684 Descending Potomac TRACON
Mon 11:12:11 AM 39.7333 -77.1333 243° Southwest 276 318 8,500 -1,100 Descending Potomac TRACON
Mon 11:13:17 AM 39.6833 -77.2167 232° Southwest 268 308 8,000 -250 Descending Potomac TRACON
Mon 11:14:11 AM 39.6333 -77.2833 226° Southwest 254 292 8,000  Level Potomac TRACON
Mon 11:15:11 AM 39.5833 -77.3167 207° Southwest 212 244 8,000 -939 Level Potomac TRACON
Mon 11:16:06 AM 39.5333 -77.3000 166° South 226 260 6,200 -1,774 Descending Potomac TRACON
Mon 11:17:06 AM 39.4833 -77.3500 218° Southwest 218 251 4,600 -1,100 Descending Potomac TRACON
Mon 11:18:06 AM 39.4333 -77.3833 207° Southwest 202 232 4,000 -300 Descending Potomac TRACON
Mon 11:19:06 AM 39.3833 -77.4167 207° Southwest 218 251 4,000  Level Potomac TRACON
Mon 11:20:06 AM 39.3167 -77.4333 191° South 218 251 4,000 -496 Level Potomac TRACON
Mon 11:21:07 AM 39.2667 -77.4333 180° South 212 244 3,000 -472 Descending Potomac TRACON
Mon 11:22:13 AM 39.2000 -77.4333 180° South 208 239 3,000  Level Potomac TRACON
Mon 11:23:07 AM 39.1500 -77.4333 180° South 224 258 3,000  Level Potomac TRACON
Mon 11:24:07 AM 39.0833 -77.4333 180° South 211 243 3,000 -522 Level Potomac TRACON
Mon 11:25:02 AM 39.0333 -77.4333 180° South 186 214 2,000 -942 Descending Potomac TRACON
Mon 11:26:08 AM 39.0000 -77.4333 180° South 145 167 1,100 -818 Descending Potomac TRACON
Mon 11:28:00 AM 38.9474 -77.4599 180° South  Level Estimated
Mon 11:35:00 AM 38.9474 -77.4599 349° North  Level Estimated

Login

Don't have an account? Register now (free) for customized features, flight alerts, and more!